sensor_id;sensor_type;location;lat;lon;timestamp;P1;durP1;ratioP1;P2;durP2;ratioP2
44885;SDS011;36669;51.428;21.162;2022-08-25T00:02:14;16.48;;;5.97;;
44885;SDS011;36669;51.428;21.162;2022-08-25T00:04:39;17.65;;;6.47;;
44885;SDS011;36669;51.428;21.162;2022-08-25T00:07:05;23.33;;;6.35;;
44885;SDS011;36669;51.428;21.162;2022-08-25T00:09:31;22.67;;;6.05;;
44885;SDS011;36669;51.428;21.162;2022-08-25T00:11:58;22.00;;;6.32;;
44885;SDS011;36669;51.428;21.162;2022-08-25T00:14:29;29.98;;;6.47;;
44885;SDS011;36669;51.428;21.162;2022-08-25T00:16:56;28.80;;;6.13;;
44885;SDS011;36669;51.428;21.162;2022-08-25T00:19:24;18.42;;;6.60;;
44885;SDS011;36669;51.428;21.162;2022-08-25T00:21:52;21.65;;;5.65;;
44885;SDS011;36669;51.428;21.162;2022-08-25T00:24:18;20.90;;;6.20;;
44885;SDS011;36669;51.428;21.162;2022-08-25T00:26:46;23.65;;;5.97;;
44885;SDS011;36669;51.428;21.162;2022-08-25T00:29:13;21.73;;;6.32;;
44885;SDS011;36669;51.428;21.162;2022-08-25T00:31:39;18.90;;;6.50;;
44885;SDS011;36669;51.428;21.162;2022-08-25T00:34:07;22.25;;;6.53;;
44885;SDS011;36669;51.428;21.162;2022-08-25T00:36:35;20.25;;;6.57;;
44885;SDS011;36669;51.428;21.162;2022-08-25T00:39:02;33.83;;;5.93;;
44885;SDS011;36669;51.428;21.162;2022-08-25T00:41:28;28.38;;;6.13;;
44885;SDS011;36669;51.428;21.162;2022-08-25T00:46:23;24.15;;;6.47;;
44885;SDS011;36669;51.428;21.162;2022-08-25T00:49:04;23.98;;;5.78;;
44885;SDS011;36669;51.428;21.162;2022-08-25T00:54:09;20.33;;;5.55;;
44885;SDS011;36669;51.428;21.162;2022-08-25T00:56:40;16.42;;;4.82;;
44885;SDS011;36669;51.428;21.162;2022-08-25T00:59:06;22.45;;;5.85;;
44885;SDS011;36669;51.428;21.162;2022-08-25T01:01:32;21.25;;;5.63;;
44885;SDS011;36669;51.428;21.162;2022-08-25T01:03:58;17.38;;;5.70;;
44885;SDS011;36669;51.428;21.162;2022-08-25T01:06:26;19.48;;;5.70;;
44885;SDS011;36669;51.428;21.162;2022-08-25T01:08:54;23.23;;;5.88;;
44885;SDS011;36669;51.428;21.162;2022-08-25T01:11:20;26.73;;;5.80;;
44885;SDS011;36669;51.428;21.162;2022-08-25T01:13:48;23.52;;;6.57;;
44885;SDS011;36669;51.428;21.162;2022-08-25T01:16:17;25.63;;;5.60;;
44885;SDS011;36669;51.428;21.162;2022-08-25T01:18:44;22.63;;;5.95;;
44885;SDS011;36669;51.428;21.162;2022-08-25T01:21:12;28.30;;;5.82;;
44885;SDS011;36669;51.428;21.162;2022-08-25T01:23:39;21.92;;;5.55;;
44885;SDS011;36669;51.428;21.162;2022-08-25T01:26:09;22.40;;;5.93;;
44885;SDS011;36669;51.428;21.162;2022-08-25T01:28:43;23.92;;;5.80;;
44885;SDS011;36669;51.428;21.162;2022-08-25T01:31:09;20.30;;;5.60;;
44885;SDS011;36669;51.428;21.162;2022-08-25T01:33:35;23.65;;;5.57;;
44885;SDS011;36669;51.428;21.162;2022-08-25T01:36:00;20.73;;;5.75;;
44885;SDS011;36669;51.428;21.162;2022-08-25T01:38:26;28.25;;;5.82;;
44885;SDS011;36669;51.428;21.162;2022-08-25T01:40:51;19.63;;;6.10;;
44885;SDS011;36669;51.428;21.162;2022-08-25T01:43:24;25.17;;;5.80;;
44885;SDS011;36669;51.428;21.162;2022-08-25T01:45:59;21.50;;;6.53;;
44885;SDS011;36669;51.428;21.162;2022-08-25T01:48:24;21.95;;;5.97;;
44885;SDS011;36669;51.428;21.162;2022-08-25T01:50:50;23.25;;;5.88;;
44885;SDS011;36669;51.428;21.162;2022-08-25T01:53:21;24.48;;;5.82;;
44885;SDS011;36669;51.428;21.162;2022-08-25T01:55:51;23.17;;;5.85;;
44885;SDS011;36669;51.428;21.162;2022-08-25T01:58:18;28.52;;;6.90;;
44885;SDS011;36669;51.428;21.162;2022-08-25T02:00:50;24.60;;;5.88;;
44885;SDS011;36669;51.428;21.162;2022-08-25T02:03:17;22.52;;;6.10;;
44885;SDS011;36669;51.428;21.162;2022-08-25T02:05:43;17.15;;;5.85;;
44885;SDS011;36669;51.428;21.162;2022-08-25T02:08:08;25.90;;;7.38;;
44885;SDS011;36669;51.428;21.162;2022-08-25T02:10:34;28.20;;;6.50;;
44885;SDS011;36669;51.428;21.162;2022-08-25T02:13:00;19.23;;;6.40;;
44885;SDS011;36669;51.428;21.162;2022-08-25T02:15:25;25.13;;;6.70;;
44885;SDS011;36669;51.428;21.162;2022-08-25T02:17:52;26.35;;;7.15;;
44885;SDS011;36669;51.428;21.162;2022-08-25T02:20:19;20.67;;;6.97;;
44885;SDS011;36669;51.428;21.162;2022-08-25T02:22:45;27.50;;;6.50;;
44885;SDS011;36669;51.428;21.162;2022-08-25T02:25:10;19.10;;;6.90;;
44885;SDS011;36669;51.428;21.162;2022-08-25T02:27:36;25.23;;;7.10;;
44885;SDS011;36669;51.428;21.162;2022-08-25T02:30:03;21.42;;;6.75;;
44885;SDS011;36669;51.428;21.162;2022-08-25T02:32:29;27.50;;;7.13;;
44885;SDS011;36669;51.428;21.162;2022-08-25T02:34:55;25.30;;;7.90;;
44885;SDS011;36669;51.428;21.162;2022-08-25T02:37:20;22.23;;;7.20;;
44885;SDS011;36669;51.428;21.162;2022-08-25T02:39:46;22.33;;;7.13;;
44885;SDS011;36669;51.428;21.162;2022-08-25T02:42:11;26.42;;;7.22;;
44885;SDS011;36669;51.428;21.162;2022-08-25T02:44:37;24.75;;;8.32;;
44885;SDS011;36669;51.428;21.162;2022-08-25T02:47:03;28.70;;;8.32;;
44885;SDS011;36669;51.428;21.162;2022-08-25T02:49:30;23.50;;;8.00;;
44885;SDS011;36669;51.428;21.162;2022-08-25T02:51:55;24.13;;;7.30;;
44885;SDS011;36669;51.428;21.162;2022-08-25T02:54:21;20.10;;;7.35;;
44885;SDS011;36669;51.428;21.162;2022-08-25T02:56:47;26.42;;;7.90;;
44885;SDS011;36669;51.428;21.162;2022-08-25T02:59:12;26.17;;;8.15;;
44885;SDS011;36669;51.428;21.162;2022-08-25T03:01:38;25.40;;;8.80;;
44885;SDS011;36669;51.428;21.162;2022-08-25T03:04:03;26.20;;;7.88;;
44885;SDS011;36669;51.428;21.162;2022-08-25T03:06:29;22.15;;;7.93;;
44885;SDS011;36669;51.428;21.162;2022-08-25T03:08:55;22.17;;;8.15;;
44885;SDS011;36669;51.428;21.162;2022-08-25T03:11:20;27.00;;;8.45;;
44885;SDS011;36669;51.428;21.162;2022-08-25T03:13:46;26.42;;;8.45;;
44885;SDS011;36669;51.428;21.162;2022-08-25T03:16:12;36.10;;;8.20;;
44885;SDS011;36669;51.428;21.162;2022-08-25T03:18:39;23.42;;;8.35;;
44885;SDS011;36669;51.428;21.162;2022-08-25T03:21:06;29.75;;;8.27;;
44885;SDS011;36669;51.428;21.162;2022-08-25T03:23:33;28.55;;;8.60;;
44885;SDS011;36669;51.428;21.162;2022-08-25T03:25:59;27.10;;;8.38;;
44885;SDS011;36669;51.428;21.162;2022-08-25T03:28:25;28.40;;;8.15;;
44885;SDS011;36669;51.428;21.162;2022-08-25T03:30:51;27.40;;;8.60;;
44885;SDS011;36669;51.428;21.162;2022-08-25T03:33:17;26.60;;;8.50;;
44885;SDS011;36669;51.428;21.162;2022-08-25T03:35:42;31.02;;;8.93;;
44885;SDS011;36669;51.428;21.162;2022-08-25T03:38:08;31.45;;;9.88;;
44885;SDS011;36669;51.428;21.162;2022-08-25T03:40:33;28.40;;;9.30;;
44885;SDS011;36669;51.428;21.162;2022-08-25T03:42:59;36.40;;;9.93;;
44885;SDS011;36669;51.428;21.162;2022-08-25T03:45:26;28.33;;;9.45;;
44885;SDS011;36669;51.428;21.162;2022-08-25T03:47:53;29.92;;;10.43;;
44885;SDS011;36669;51.428;21.162;2022-08-25T03:50:19;28.38;;;9.68;;
44885;SDS011;36669;51.428;21.162;2022-08-25T03:52:49;23.88;;;9.15;;
44885;SDS011;36669;51.428;21.162;2022-08-25T03:55:19;29.67;;;10.05;;
44885;SDS011;36669;51.428;21.162;2022-08-25T03:57:46;33.40;;;10.68;;
44885;SDS011;36669;51.428;21.162;2022-08-25T04:00:12;32.65;;;11.30;;
44885;SDS011;36669;51.428;21.162;2022-08-25T04:02:39;36.03;;;11.45;;
44885;SDS011;36669;51.428;21.162;2022-08-25T04:05:07;27.20;;;11.15;;
44885;SDS011;36669;51.428;21.162;2022-08-25T04:07:34;28.60;;;11.20;;
44885;SDS011;36669;51.428;21.162;2022-08-25T04:10:00;31.15;;;14.48;;
44885;SDS011;36669;51.428;21.162;2022-08-25T04:12:27;39.30;;;17.90;;
44885;SDS011;36669;51.428;21.162;2022-08-25T04:14:54;25.38;;;12.45;;
44885;SDS011;36669;51.428;21.162;2022-08-25T04:17:20;26.25;;;11.25;;
44885;SDS011;36669;51.428;21.162;2022-08-25T04:19:45;33.63;;;11.25;;
44885;SDS011;36669;51.428;21.162;2022-08-25T04:22:11;30.13;;;11.88;;
44885;SDS011;36669;51.428;21.162;2022-08-25T04:24:36;36.60;;;16.77;;
44885;SDS011;36669;51.428;21.162;2022-08-25T04:27:02;26.02;;;12.40;;
44885;SDS011;36669;51.428;21.162;2022-08-25T04:29:28;30.35;;;12.75;;
44885;SDS011;36669;51.428;21.162;2022-08-25T04:31:54;27.65;;;12.40;;
44885;SDS011;36669;51.428;21.162;2022-08-25T04:34:21;37.13;;;13.88;;
44885;SDS011;36669;51.428;21.162;2022-08-25T04:36:48;28.20;;;12.18;;
44885;SDS011;36669;51.428;21.162;2022-08-25T04:39:13;31.90;;;12.52;;
44885;SDS011;36669;51.428;21.162;2022-08-25T04:41:40;29.40;;;11.43;;
44885;SDS011;36669;51.428;21.162;2022-08-25T04:44:06;32.88;;;11.43;;
44885;SDS011;36669;51.428;21.162;2022-08-25T04:46:32;28.95;;;11.10;;
44885;SDS011;36669;51.428;21.162;2022-08-25T04:48:59;22.67;;;11.93;;
44885;SDS011;36669;51.428;21.162;2022-08-25T04:51:27;25.52;;;11.55;;
44885;SDS011;36669;51.428;21.162;2022-08-25T04:53:57;40.92;;;20.90;;
44885;SDS011;36669;51.428;21.162;2022-08-25T04:56:24;28.63;;;13.50;;
44885;SDS011;36669;51.428;21.162;2022-08-25T04:58:50;25.27;;;12.60;;
44885;SDS011;36669;51.428;21.162;2022-08-25T05:01:17;26.55;;;10.70;;
44885;SDS011;36669;51.428;21.162;2022-08-25T05:03:45;22.95;;;10.30;;
44885;SDS011;36669;51.428;21.162;2022-08-25T05:06:17;24.65;;;10.38;;
44885;SDS011;36669;51.428;21.162;2022-08-25T05:08:43;34.10;;;11.57;;
44885;SDS011;36669;51.428;21.162;2022-08-25T05:11:09;25.13;;;9.93;;
44885;SDS011;36669;51.428;21.162;2022-08-25T05:13:37;26.65;;;9.55;;
44885;SDS011;36669;51.428;21.162;2022-08-25T05:16:03;21.65;;;9.32;;
44885;SDS011;36669;51.428;21.162;2022-08-25T05:18:29;25.35;;;10.45;;
44885;SDS011;36669;51.428;21.162;2022-08-25T05:21:00;26.83;;;11.00;;
44885;SDS011;36669;51.428;21.162;2022-08-25T05:23:27;28.10;;;11.45;;
44885;SDS011;36669;51.428;21.162;2022-08-25T05:25:52;28.13;;;11.20;;
44885;SDS011;36669;51.428;21.162;2022-08-25T05:28:18;34.63;;;11.23;;
44885;SDS011;36669;51.428;21.162;2022-08-25T05:30:44;32.25;;;11.05;;
44885;SDS011;36669;51.428;21.162;2022-08-25T05:33:11;29.88;;;11.20;;
44885;SDS011;36669;51.428;21.162;2022-08-25T05:35:37;27.67;;;9.18;;
44885;SDS011;36669;51.428;21.162;2022-08-25T05:38:03;27.08;;;10.15;;
44885;SDS011;36669;51.428;21.162;2022-08-25T05:40:30;27.98;;;8.88;;
44885;SDS011;36669;51.428;21.162;2022-08-25T05:42:56;37.65;;;9.75;;
44885;SDS011;36669;51.428;21.162;2022-08-25T05:45:22;25.45;;;9.93;;
44885;SDS011;36669;51.428;21.162;2022-08-25T05:47:47;31.50;;;12.88;;
44885;SDS011;36669;51.428;21.162;2022-08-25T05:50:15;37.30;;;10.25;;
44885;SDS011;36669;51.428;21.162;2022-08-25T05:52:42;31.63;;;9.80;;
44885;SDS011;36669;51.428;21.162;2022-08-25T05:55:10;31.15;;;10.13;;
44885;SDS011;36669;51.428;21.162;2022-08-25T05:57:36;24.13;;;9.75;;
44885;SDS011;36669;51.428;21.162;2022-08-25T06:00:03;41.88;;;10.13;;
44885;SDS011;36669;51.428;21.162;2022-08-25T06:02:30;35.00;;;11.10;;
44885;SDS011;36669;51.428;21.162;2022-08-25T06:04:56;34.95;;;10.55;;
44885;SDS011;36669;51.428;21.162;2022-08-25T06:07:21;39.90;;;9.98;;
44885;SDS011;36669;51.428;21.162;2022-08-25T06:09:47;29.85;;;9.68;;
44885;SDS011;36669;51.428;21.162;2022-08-25T06:12:12;35.78;;;10.20;;
44885;SDS011;36669;51.428;21.162;2022-08-25T06:14:38;32.25;;;9.75;;
44885;SDS011;36669;51.428;21.162;2022-08-25T06:17:03;37.97;;;10.27;;
44885;SDS011;36669;51.428;21.162;2022-08-25T06:19:29;28.13;;;9.55;;
44885;SDS011;36669;51.428;21.162;2022-08-25T06:21:55;28.92;;;10.10;;
44885;SDS011;36669;51.428;21.162;2022-08-25T06:24:22;42.88;;;10.82;;
44885;SDS011;36669;51.428;21.162;2022-08-25T06:26:50;35.25;;;10.80;;
44885;SDS011;36669;51.428;21.162;2022-08-25T06:29:16;39.90;;;10.52;;
44885;SDS011;36669;51.428;21.162;2022-08-25T06:31:41;32.47;;;9.85;;
44885;SDS011;36669;51.428;21.162;2022-08-25T06:34:09;41.03;;;9.73;;
44885;SDS011;36669;51.428;21.162;2022-08-25T06:36:35;34.05;;;9.45;;
44885;SDS011;36669;51.428;21.162;2022-08-25T06:39:00;28.27;;;9.38;;
44885;SDS011;36669;51.428;21.162;2022-08-25T06:41:26;38.65;;;11.25;;
44885;SDS011;36669;51.428;21.162;2022-08-25T06:43:52;31.83;;;9.98;;
44885;SDS011;36669;51.428;21.162;2022-08-25T06:46:18;41.35;;;10.75;;
44885;SDS011;36669;51.428;21.162;2022-08-25T06:48:47;39.38;;;10.32;;
44885;SDS011;36669;51.428;21.162;2022-08-25T06:51:14;41.85;;;10.10;;
44885;SDS011;36669;51.428;21.162;2022-08-25T06:53:42;38.95;;;9.45;;
44885;SDS011;36669;51.428;21.162;2022-08-25T06:56:09;26.73;;;9.57;;
44885;SDS011;36669;51.428;21.162;2022-08-25T06:58:36;31.58;;;9.35;;
44885;SDS011;36669;51.428;21.162;2022-08-25T07:01:22;34.40;;;9.00;;
44885;SDS011;36669;51.428;21.162;2022-08-25T07:03:49;30.67;;;9.05;;
44885;SDS011;36669;51.428;21.162;2022-08-25T07:06:15;31.70;;;12.45;;
44885;SDS011;36669;51.428;21.162;2022-08-25T07:08:42;25.33;;;8.50;;
44885;SDS011;36669;51.428;21.162;2022-08-25T07:11:08;24.85;;;7.88;;
44885;SDS011;36669;51.428;21.162;2022-08-25T07:13:35;33.95;;;8.50;;
44885;SDS011;36669;51.428;21.162;2022-08-25T07:16:04;25.20;;;7.88;;
44885;SDS011;36669;51.428;21.162;2022-08-25T07:18:30;31.33;;;7.97;;
44885;SDS011;36669;51.428;21.162;2022-08-25T07:20:58;28.00;;;7.38;;
44885;SDS011;36669;51.428;21.162;2022-08-25T07:23:25;20.73;;;7.30;;
44885;SDS011;36669;51.428;21.162;2022-08-25T07:25:53;22.88;;;7.13;;
44885;SDS011;36669;51.428;21.162;2022-08-25T07:28:19;29.63;;;8.23;;
44885;SDS011;36669;51.428;21.162;2022-08-25T07:30:46;28.15;;;9.13;;
44885;SDS011;36669;51.428;21.162;2022-08-25T07:33:11;32.35;;;7.95;;
44885;SDS011;36669;51.428;21.162;2022-08-25T07:35:37;31.00;;;6.88;;
44885;SDS011;36669;51.428;21.162;2022-08-25T07:38:03;33.45;;;7.78;;
44885;SDS011;36669;51.428;21.162;2022-08-25T07:40:32;28.77;;;7.50;;
44885;SDS011;36669;51.428;21.162;2022-08-25T07:43:00;27.33;;;7.18;;
44885;SDS011;36669;51.428;21.162;2022-08-25T07:45:31;25.05;;;6.90;;
44885;SDS011;36669;51.428;21.162;2022-08-25T07:48:07;27.95;;;7.30;;
44885;SDS011;36669;51.428;21.162;2022-08-25T07:50:35;30.85;;;7.25;;
44885;SDS011;36669;51.428;21.162;2022-08-25T07:53:02;34.13;;;7.65;;
44885;SDS011;36669;51.428;21.162;2022-08-25T07:55:28;22.08;;;7.38;;
44885;SDS011;36669;51.428;21.162;2022-08-25T07:57:54;24.85;;;7.00;;
44885;SDS011;36669;51.428;21.162;2022-08-25T08:00:21;28.25;;;7.22;;
44885;SDS011;36669;51.428;21.162;2022-08-25T08:02:48;34.28;;;7.22;;
44885;SDS011;36669;51.428;21.162;2022-08-25T08:05:14;22.13;;;6.88;;
44885;SDS011;36669;51.428;21.162;2022-08-25T08:07:40;29.90;;;7.65;;
44885;SDS011;36669;51.428;21.162;2022-08-25T08:10:08;28.27;;;7.43;;
44885;SDS011;36669;51.428;21.162;2022-08-25T08:12:34;24.75;;;6.60;;
44885;SDS011;36669;51.428;21.162;2022-08-25T08:15:01;27.92;;;7.15;;
44885;SDS011;36669;51.428;21.162;2022-08-25T08:17:27;22.58;;;6.78;;
44885;SDS011;36669;51.428;21.162;2022-08-25T08:19:53;27.85;;;6.97;;
44885;SDS011;36669;51.428;21.162;2022-08-25T08:22:18;23.20;;;6.93;;
44885;SDS011;36669;51.428;21.162;2022-08-25T08:24:44;27.08;;;6.50;;
44885;SDS011;36669;51.428;21.162;2022-08-25T08:27:11;31.38;;;7.13;;
44885;SDS011;36669;51.428;21.162;2022-08-25T08:29:37;23.88;;;6.07;;
44885;SDS011;36669;51.428;21.162;2022-08-25T08:32:05;18.38;;;5.72;;
44885;SDS011;36669;51.428;21.162;2022-08-25T08:34:32;25.92;;;7.15;;
44885;SDS011;36669;51.428;21.162;2022-08-25T08:36:58;21.27;;;5.93;;
44885;SDS011;36669;51.428;21.162;2022-08-25T08:39:25;20.23;;;6.28;;
44885;SDS011;36669;51.428;21.162;2022-08-25T08:58:24;20.08;;;5.90;;
44885;SDS011;36669;51.428;21.162;2022-08-25T09:01:11;22.95;;;6.30;;
44885;SDS011;36669;51.428;21.162;2022-08-25T09:03:42;34.70;;;6.38;;
44885;SDS011;36669;51.428;21.162;2022-08-25T09:06:11;19.30;;;5.60;;
44885;SDS011;36669;51.428;21.162;2022-08-25T09:08:43;23.20;;;5.95;;
44885;SDS011;36669;51.428;21.162;2022-08-25T09:11:28;21.73;;;6.13;;
44885;SDS011;36669;51.428;21.162;2022-08-25T09:14:16;28.65;;;6.10;;
44885;SDS011;36669;51.428;21.162;2022-08-25T09:26:12;17.85;;;5.40;;
44885;SDS011;36669;51.428;21.162;2022-08-25T09:28:39;36.63;;;5.50;;
44885;SDS011;36669;51.428;21.162;2022-08-25T09:34:00;21.92;;;5.63;;
44885;SDS011;36669;51.428;21.162;2022-08-25T09:36:28;20.95;;;5.22;;
44885;SDS011;36669;51.428;21.162;2022-08-25T09:38:55;14.63;;;4.68;;
44885;SDS011;36669;51.428;21.162;2022-08-25T09:41:40;15.55;;;4.30;;
44885;SDS011;36669;51.428;21.162;2022-08-25T09:49:20;18.27;;;4.28;;
44885;SDS011;36669;51.428;21.162;2022-08-25T09:51:54;18.75;;;4.70;;
44885;SDS011;36669;51.428;21.162;2022-08-25T09:54:40;13.00;;;4.35;;
44885;SDS011;36669;51.428;21.162;2022-08-25T09:57:05;18.77;;;4.63;;
44885;SDS011;36669;51.428;21.162;2022-08-25T09:59:35;21.55;;;4.32;;
44885;SDS011;36669;51.428;21.162;2022-08-25T10:02:18;17.70;;;4.00;;
44885;SDS011;36669;51.428;21.162;2022-08-25T10:04:53;12.18;;;4.22;;
44885;SDS011;36669;51.428;21.162;2022-08-25T10:07:34;10.60;;;3.42;;
44885;SDS011;36669;51.428;21.162;2022-08-25T10:10:04;14.02;;;3.63;;
44885;SDS011;36669;51.428;21.162;2022-08-25T10:12:43;11.50;;;3.30;;
44885;SDS011;36669;51.428;21.162;2022-08-25T10:15:19;10.85;;;3.35;;
44885;SDS011;36669;51.428;21.162;2022-08-25T10:17:46;9.27;;;3.58;;
44885;SDS011;36669;51.428;21.162;2022-08-25T10:20:14;8.05;;;3.45;;
44885;SDS011;36669;51.428;21.162;2022-08-25T10:22:45;9.70;;;2.92;;
44885;SDS011;36669;51.428;21.162;2022-08-25T10:25:15;19.90;;;2.92;;
44885;SDS011;36669;51.428;21.162;2022-08-25T10:31:14;14.20;;;3.15;;
44885;SDS011;36669;51.428;21.162;2022-08-25T10:33:50;11.85;;;3.38;;
44885;SDS011;36669;51.428;21.162;2022-08-25T10:36:48;11.93;;;3.03;;
44885;SDS011;36669;51.428;21.162;2022-08-25T10:39:29;10.27;;;3.40;;
44885;SDS011;36669;51.428;21.162;2022-08-25T10:50:35;9.55;;;3.10;;
44885;SDS011;36669;51.428;21.162;2022-08-25T11:04:09;11.57;;;3.22;;
44885;SDS011;36669;51.428;21.162;2022-08-25T11:06:54;22.03;;;4.37;;
44885;SDS011;36669;51.428;21.162;2022-08-25T11:09:45;17.02;;;3.72;;
44885;SDS011;36669;51.428;21.162;2022-08-25T11:12:16;9.88;;;3.60;;
44885;SDS011;36669;51.428;21.162;2022-08-25T11:15:04;8.25;;;3.00;;
44885;SDS011;36669;51.428;21.162;2022-08-25T11:17:55;7.05;;;3.38;;
44885;SDS011;36669;51.428;21.162;2022-08-25T11:21:01;7.40;;;2.83;;
44885;SDS011;36669;51.428;21.162;2022-08-25T11:26:11;16.58;;;3.45;;
44885;SDS011;36669;51.428;21.162;2022-08-25T11:29:02;9.80;;;3.50;;
44885;SDS011;36669;51.428;21.162;2022-08-25T11:31:46;13.82;;;4.18;;
44885;SDS011;36669;51.428;21.162;2022-08-25T11:34:14;11.18;;;3.63;;
44885;SDS011;36669;51.428;21.162;2022-08-25T11:36:41;17.42;;;4.70;;
44885;SDS011;36669;51.428;21.162;2022-08-25T11:44:44;9.45;;;3.90;;
44885;SDS011;36669;51.428;21.162;2022-08-25T11:52:55;9.32;;;3.53;;
44885;SDS011;36669;51.428;21.162;2022-08-25T12:00:51;15.90;;;4.38;;
44885;SDS011;36669;51.428;21.162;2022-08-25T12:06:21;16.50;;;3.30;;
44885;SDS011;36669;51.428;21.162;2022-08-25T12:19:29;14.50;;;3.08;;
44885;SDS011;36669;51.428;21.162;2022-08-25T12:38:30;13.15;;;2.95;;
44885;SDS011;36669;51.428;21.162;2022-08-25T12:41:05;5.45;;;2.80;;
44885;SDS011;36669;51.428;21.162;2022-08-25T12:43:38;9.15;;;2.63;;
44885;SDS011;36669;51.428;21.162;2022-08-25T12:48:57;12.82;;;3.15;;
44885;SDS011;36669;51.428;21.162;2022-08-25T12:51:50;10.57;;;2.90;;
44885;SDS011;36669;51.428;21.162;2022-08-25T13:00:16;6.32;;;2.85;;
44885;SDS011;36669;51.428;21.162;2022-08-25T13:08:43;7.05;;;2.60;;
44885;SDS011;36669;51.428;21.162;2022-08-25T13:14:14;12.45;;;2.72;;
44885;SDS011;36669;51.428;21.162;2022-08-25T13:16:53;11.35;;;2.38;;
44885;SDS011;36669;51.428;21.162;2022-08-25T13:19:20;8.45;;;2.35;;
44885;SDS011;36669;51.428;21.162;2022-08-25T13:21:46;7.60;;;2.63;;
44885;SDS011;36669;51.428;21.162;2022-08-25T13:24:22;10.38;;;2.80;;
44885;SDS011;36669;51.428;21.162;2022-08-25T13:26:55;11.02;;;2.95;;
44885;SDS011;36669;51.428;21.162;2022-08-25T13:29:28;11.38;;;2.80;;
44885;SDS011;36669;51.428;21.162;2022-08-25T13:32:00;14.38;;;2.60;;
44885;SDS011;36669;51.428;21.162;2022-08-25T13:34:31;7.82;;;2.35;;
44885;SDS011;36669;51.428;21.162;2022-08-25T13:37:05;8.07;;;2.50;;
44885;SDS011;36669;51.428;21.162;2022-08-25T13:39:39;11.20;;;2.78;;
44885;SDS011;36669;51.428;21.162;2022-08-25T13:42:12;8.10;;;2.40;;
44885;SDS011;36669;51.428;21.162;2022-08-25T13:44:39;14.48;;;2.80;;
44885;SDS011;36669;51.428;21.162;2022-08-25T13:47:12;7.15;;;2.30;;
44885;SDS011;36669;51.428;21.162;2022-08-25T13:50:06;8.88;;;2.83;;
44885;SDS011;36669;51.428;21.162;2022-08-25T13:52:42;8.00;;;2.40;;
44885;SDS011;36669;51.428;21.162;2022-08-25T13:55:19;9.57;;;2.60;;
44885;SDS011;36669;51.428;21.162;2022-08-25T13:57:49;7.93;;;2.88;;
44885;SDS011;36669;51.428;21.162;2022-08-25T14:00:24;10.25;;;2.90;;
44885;SDS011;36669;51.428;21.162;2022-08-25T14:08:42;6.93;;;2.22;;
44885;SDS011;36669;51.428;21.162;2022-08-25T14:11:33;9.63;;;2.72;;
44885;SDS011;36669;51.428;21.162;2022-08-25T14:14:11;8.95;;;2.55;;
44885;SDS011;36669;51.428;21.162;2022-08-25T14:16:57;12.95;;;2.80;;
44885;SDS011;36669;51.428;21.162;2022-08-25T14:19:25;13.40;;;2.60;;
44885;SDS011;36669;51.428;21.162;2022-08-25T14:21:51;8.57;;;2.40;;
44885;SDS011;36669;51.428;21.162;2022-08-25T14:24:20;9.73;;;2.72;;
44885;SDS011;36669;51.428;21.162;2022-08-25T14:26:47;9.60;;;2.67;;
44885;SDS011;36669;51.428;21.162;2022-08-25T14:29:14;6.70;;;2.45;;
44885;SDS011;36669;51.428;21.162;2022-08-25T14:31:42;9.63;;;2.50;;
44885;SDS011;36669;51.428;21.162;2022-08-25T14:34:14;12.80;;;2.70;;
44885;SDS011;36669;51.428;21.162;2022-08-25T14:36:44;8.27;;;2.78;;
44885;SDS011;36669;51.428;21.162;2022-08-25T14:39:10;11.10;;;2.90;;
44885;SDS011;36669;51.428;21.162;2022-08-25T14:41:37;11.60;;;2.65;;
44885;SDS011;36669;51.428;21.162;2022-08-25T14:44:04;10.60;;;2.70;;
44885;SDS011;36669;51.428;21.162;2022-08-25T14:46:31;10.07;;;2.90;;
44885;SDS011;36669;51.428;21.162;2022-08-25T14:49:00;15.45;;;2.85;;
44885;SDS011;36669;51.428;21.162;2022-08-25T14:51:29;11.20;;;2.55;;
44885;SDS011;36669;51.428;21.162;2022-08-25T14:53:58;9.55;;;2.85;;
44885;SDS011;36669;51.428;21.162;2022-08-25T14:56:27;9.93;;;2.35;;
44885;SDS011;36669;51.428;21.162;2022-08-25T14:58:53;11.02;;;2.60;;
44885;SDS011;36669;51.428;21.162;2022-08-25T15:01:20;8.48;;;2.40;;
44885;SDS011;36669;51.428;21.162;2022-08-25T15:03:47;11.55;;;2.33;;
44885;SDS011;36669;51.428;21.162;2022-08-25T15:06:16;13.90;;;2.70;;
44885;SDS011;36669;51.428;21.162;2022-08-25T15:08:42;9.68;;;2.15;;
44885;SDS011;36669;51.428;21.162;2022-08-25T15:11:08;8.80;;;2.53;;
44885;SDS011;36669;51.428;21.162;2022-08-25T15:13:33;11.00;;;3.17;;
44885;SDS011;36669;51.428;21.162;2022-08-25T15:16:00;8.57;;;2.33;;
44885;SDS011;36669;51.428;21.162;2022-08-25T15:18:26;7.50;;;2.25;;
44885;SDS011;36669;51.428;21.162;2022-08-25T15:20:53;8.75;;;2.45;;
44885;SDS011;36669;51.428;21.162;2022-08-25T15:23:18;7.68;;;2.30;;
44885;SDS011;36669;51.428;21.162;2022-08-25T15:25:45;10.05;;;2.42;;
44885;SDS011;36669;51.428;21.162;2022-08-25T15:28:11;10.75;;;2.70;;
44885;SDS011;36669;51.428;21.162;2022-08-25T15:30:37;10.68;;;2.53;;
44885;SDS011;36669;51.428;21.162;2022-08-25T15:33:03;9.25;;;2.72;;
44885;SDS011;36669;51.428;21.162;2022-08-25T15:35:28;7.85;;;2.58;;
44885;SDS011;36669;51.428;21.162;2022-08-25T15:37:54;9.02;;;2.30;;
44885;SDS011;36669;51.428;21.162;2022-08-25T15:40:20;12.48;;;2.97;;
44885;SDS011;36669;51.428;21.162;2022-08-25T15:42:45;8.05;;;2.80;;
44885;SDS011;36669;51.428;21.162;2022-08-25T15:45:11;6.78;;;2.40;;
44885;SDS011;36669;51.428;21.162;2022-08-25T15:47:36;8.98;;;2.40;;
44885;SDS011;36669;51.428;21.162;2022-08-25T15:50:07;8.15;;;2.20;;
44885;SDS011;36669;51.428;21.162;2022-08-25T15:52:34;9.00;;;2.30;;
44885;SDS011;36669;51.428;21.162;2022-08-25T15:55:02;4.35;;;2.30;;
44885;SDS011;36669;51.428;21.162;2022-08-25T15:57:29;6.50;;;2.30;;
44885;SDS011;36669;51.428;21.162;2022-08-25T15:59:54;7.30;;;2.22;;
44885;SDS011;36669;51.428;21.162;2022-08-25T16:02:20;10.07;;;2.72;;
44885;SDS011;36669;51.428;21.162;2022-08-25T16:04:46;8.05;;;2.40;;
44885;SDS011;36669;51.428;21.162;2022-08-25T16:07:11;12.30;;;2.28;;
44885;SDS011;36669;51.428;21.162;2022-08-25T16:09:37;8.38;;;2.53;;
44885;SDS011;36669;51.428;21.162;2022-08-25T16:12:04;10.25;;;2.42;;
44885;SDS011;36669;51.428;21.162;2022-08-25T16:14:29;9.23;;;2.88;;
44885;SDS011;36669;51.428;21.162;2022-08-25T16:16:55;10.07;;;2.50;;
44885;SDS011;36669;51.428;21.162;2022-08-25T16:19:20;12.95;;;3.33;;
44885;SDS011;36669;51.428;21.162;2022-08-25T16:21:46;9.98;;;2.55;;
44885;SDS011;36669;51.428;21.162;2022-08-25T16:24:13;7.40;;;2.50;;
44885;SDS011;36669;51.428;21.162;2022-08-25T16:26:41;9.88;;;2.45;;
44885;SDS011;36669;51.428;21.162;2022-08-25T16:29:09;11.07;;;2.40;;
44885;SDS011;36669;51.428;21.162;2022-08-25T16:31:36;10.93;;;2.90;;
44885;SDS011;36669;51.428;21.162;2022-08-25T16:34:03;12.90;;;2.60;;
44885;SDS011;36669;51.428;21.162;2022-08-25T16:36:28;8.48;;;2.40;;
44885;SDS011;36669;51.428;21.162;2022-08-25T16:38:54;7.57;;;2.80;;
44885;SDS011;36669;51.428;21.162;2022-08-25T16:41:22;8.73;;;4.45;;
44885;SDS011;36669;51.428;21.162;2022-08-25T16:43:49;7.28;;;2.95;;
44885;SDS011;36669;51.428;21.162;2022-08-25T16:46:16;10.55;;;3.95;;